Accueil
METAR-TAF:

METAR-TAF

Aéroports :

Puvirnituq, Québec, Canada

latitude: 60-03N, longitude: 077-17W, altitude: 23 m

Observation

Le bulletin a été fait il y a 17 minutes, à 04:00 UTC
Vent 5 kt de ouest
Température -29°C
Humidité 75%
Pression 1009 hPa
Visibilité: 14.5 km
Ciel clair

METAR: CYPX 240400Z AUTO 27005KT 9SM CLR M29/M32 A2980 RMK SLP097

Heure: 23:17 (04:17 UTC)

Prévision

Le bulletin a été fait il y a 4 heures et 36 minutes, à 23:41 UTC
Prévision valable du 24 à 00 UTC au 24 à 12 UTC
Vent 12 kt de ouest
Visibilité: 10 km
Ciel clair
Evoluant progressivement
du 24 à 07 UTC au 24 à 09 UTC
Vent 3 kt de direction variable

TAF: CYPX 232341Z 2400/2412 27012KT P6SM SKC BECMG 2407/2409 VRB03KT RMK FCST BASED ON AUTO OBS. NXT FCST BY 240600Z

Observations et prévisions météorologiques de plus de 4000 aéroports (messages METAR et TAF).

Les stations disponibles sont représentées par des disques jaunes et rouges sur la carte.

Passer la souris dessus pour voir le nom de la station.

Cliquer dessus pour voir les observations et prévisions météorologiques.

Pour changer de carte: cliquez sur les boutons verts avec une croix noire pour zoomer, sur le bouton vert avec un tiret pour effectuer un zoom arrière, ou sur les flèches vertes pour les cartes adjacentes.


METAR-TAF: